createdAt,value
2023-01-19T00:01:27.984Z,84.10
2023-01-19T00:04:13.314Z,84.90
2023-01-19T00:07:03.220Z,84.90
2023-01-19T00:09:50.645Z,85.80
2023-01-19T00:12:36.163Z,86.30
2023-01-19T00:15:21.419Z,85.20
2023-01-19T00:18:08.497Z,86.00
2023-01-19T00:20:55.262Z,85.20
2023-01-19T00:23:43.994Z,85.20
2023-01-19T00:26:29.491Z,84.50
2023-01-19T00:29:17.569Z,84.40
2023-01-19T00:32:04.703Z,85.20
2023-01-19T00:34:50.429Z,84.50
2023-01-19T00:37:38.092Z,85.00
2023-01-19T00:40:23.534Z,85.40
2023-01-19T00:43:09.122Z,85.80
2023-01-19T00:45:56.648Z,86.30
2023-01-19T00:48:41.907Z,86.60
2023-01-19T00:51:27.344Z,87.00
2023-01-19T00:54:13.016Z,86.40
2023-01-19T00:56:58.354Z,86.30
2023-01-19T00:59:46.210Z,86.00
2023-01-19T01:02:37.565Z,86.30
2023-01-19T01:05:22.956Z,86.30
2023-01-19T01:08:08.563Z,86.40
2023-01-19T01:10:55.146Z,86.90
2023-01-19T01:13:40.669Z,86.70
2023-01-19T01:16:26.607Z,86.20
2023-01-19T01:19:12.251Z,85.80
2023-01-19T01:21:57.516Z,85.70
2023-01-19T01:24:45.531Z,86.50
2023-01-19T01:27:31.148Z,86.00
2023-01-19T01:30:17.388Z,86.10
2023-01-19T01:33:04.388Z,86.60
2023-01-19T01:35:52.938Z,86.60
2023-01-19T01:38:40.554Z,86.90
2023-01-19T01:41:27.298Z,87.00
2023-01-19T01:44:52.165Z,88.20
2023-01-19T01:47:48.352Z,88.20
2023-01-19T01:50:37.460Z,88.60
2023-01-19T01:53:22.987Z,89.40
2023-01-19T01:56:14.210Z,89.40
2023-01-19T01:59:04.414Z,89.60
2023-01-19T02:02:08.429Z,90.80
2023-01-19T02:05:00.776Z,90.50
2023-01-19T02:08:06.576Z,90.60
2023-01-19T02:11:10.672Z,90.50
2023-01-19T02:13:59.276Z,90.90
2023-01-19T02:16:45.624Z,91.00
2023-01-19T02:19:38.299Z,91.30
2023-01-19T02:22:47.335Z,91.10
2023-01-19T02:25:33.192Z,91.40
2023-01-19T02:28:18.811Z,91.20
2023-01-19T02:31:05.304Z,91.40
2023-01-19T02:33:51.152Z,91.70
2023-01-19T02:36:42.756Z,91.60
2023-01-19T02:39:42.499Z,91.70
2023-01-19T02:42:38.749Z,92.00
2023-01-19T02:45:27.614Z,92.30
2023-01-19T02:48:13.007Z,92.30
2023-01-19T02:51:09.173Z,92.30
2023-01-19T02:54:22.219Z,92.00
2023-01-19T02:57:10.367Z,92.10
2023-01-19T03:00:18.486Z,92.50
2023-01-19T03:03:44.059Z,92.70
2023-01-19T03:06:41.191Z,92.20
2023-01-19T03:09:33.712Z,92.10
2023-01-19T03:12:42.420Z,92.50
2023-01-19T03:15:42.692Z,92.10
2023-01-19T03:18:34.410Z,92.20
2023-01-19T03:21:23.733Z,92.30
2023-01-19T03:24:15.479Z,91.90
2023-01-19T03:27:06.313Z,91.80
2023-01-19T03:30:10.699Z,92.30
2023-01-19T03:33:03.402Z,91.90
2023-01-19T03:35:52.528Z,91.90
2023-01-19T03:38:40.602Z,92.00
2023-01-19T03:41:29.295Z,92.20
2023-01-19T03:44:15.012Z,92.00
2023-01-19T03:47:02.091Z,92.60
2023-01-19T03:49:49.555Z,92.30
2023-01-19T03:52:35.192Z,92.80
2023-01-19T03:55:22.899Z,92.80
2023-01-19T03:58:08.351Z,92.50
2023-01-19T04:00:54.305Z,92.50
2023-01-19T04:03:42.755Z,92.60
2023-01-19T04:06:33.166Z,92.60
2023-01-19T04:09:20.029Z,92.60
2023-01-19T04:12:06.036Z,92.40
2023-01-19T04:14:53.805Z,92.30
2023-01-19T04:17:39.889Z,92.30
2023-01-19T04:20:27.105Z,92.50
2023-01-19T04:23:12.445Z,92.60
2023-01-19T04:26:06.421Z,92.60
2023-01-19T04:28:51.997Z,93.10
2023-01-19T04:31:37.436Z,92.30
2023-01-19T04:34:23.034Z,92.30
2023-01-19T04:37:08.597Z,92.70
2023-01-19T04:39:56.272Z,91.90
2023-01-19T04:42:46.419Z,92.10
2023-01-19T04:45:31.674Z,91.80
2023-01-19T04:48:18.573Z,91.60
2023-01-19T04:51:04.944Z,91.70
2023-01-19T04:53:50.936Z,91.70
2023-01-19T04:56:36.896Z,91.70
2023-01-19T04:59:22.598Z,91.70
2023-01-19T05:02:07.989Z,91.50
2023-01-19T05:04:55.464Z,91.50
2023-01-19T05:07:40.745Z,91.10
2023-01-19T05:10:26.899Z,91.20
2023-01-19T05:13:12.095Z,91.20
2023-01-19T05:15:57.854Z,91.30
2023-01-19T05:18:43.335Z,91.30
2023-01-19T05:21:28.593Z,91.00
2023-01-19T05:24:14.176Z,91.00
2023-01-19T05:26:59.669Z,90.90
2023-01-19T05:29:45.312Z,91.10
2023-01-19T05:32:31.119Z,91.10
2023-01-19T05:35:20.128Z,90.80
2023-01-19T05:38:08.036Z,90.80
2023-01-19T05:40:58.375Z,90.90
2023-01-19T05:43:43.809Z,90.80
2023-01-19T05:46:29.093Z,90.70
2023-01-19T05:49:15.278Z,90.40
2023-01-19T05:52:01.383Z,90.40
2023-01-19T05:54:49.189Z,90.40
2023-01-19T05:57:35.036Z,90.30
2023-01-19T06:00:21.005Z,90.40
2023-01-19T06:03:06.691Z,90.30
2023-01-19T06:05:54.333Z,90.30
2023-01-19T06:08:40.272Z,90.30
2023-01-19T06:11:28.415Z,90.30
2023-01-19T06:14:14.250Z,90.60
2023-01-19T06:16:59.640Z,90.30
2023-01-19T06:19:45.398Z,90.30
2023-01-19T06:22:30.949Z,90.30
2023-01-19T06:25:19.105Z,90.20
2023-01-19T06:28:06.918Z,90.20
2023-01-19T06:30:53.793Z,90.30
2023-01-19T06:33:39.551Z,90.30
2023-01-19T06:36:24.877Z,90.00
2023-01-19T06:39:10.715Z,90.00
2023-01-19T06:41:55.973Z,90.30
2023-01-19T06:44:47.302Z,90.00
2023-01-19T06:47:34.457Z,89.60
2023-01-19T06:50:20.281Z,90.00
2023-01-19T06:53:05.892Z,90.00
2023-01-19T06:55:51.383Z,90.20
2023-01-19T06:58:38.176Z,90.00
2023-01-19T07:01:24.000Z,90.10
2023-01-19T07:04:13.988Z,90.30
2023-01-19T07:07:00.253Z,90.20
2023-01-19T07:09:45.573Z,90.10
2023-01-19T07:12:31.286Z,90.60
2023-01-19T07:15:23.078Z,89.90
2023-01-19T07:18:09.805Z,90.00
2023-01-19T07:20:57.857Z,90.00
2023-01-19T07:23:43.670Z,90.10
2023-01-19T07:26:29.339Z,90.20
2023-01-19T07:29:14.589Z,89.60
2023-01-19T07:32:00.193Z,89.30
2023-01-19T07:34:48.679Z,89.60
2023-01-19T07:37:36.085Z,88.50
2023-01-19T07:40:24.099Z,88.30
2023-01-19T07:43:09.648Z,88.20
2023-01-19T07:46:00.344Z,88.90
2023-01-19T07:48:47.408Z,88.00
2023-01-19T07:51:32.727Z,87.60
2023-01-19T07:54:18.072Z,87.40
2023-01-19T07:57:06.011Z,87.60
2023-01-19T07:59:51.223Z,87.20
2023-01-19T08:02:37.903Z,87.10
2023-01-19T08:05:23.550Z,87.00
2023-01-19T08:08:08.789Z,86.80
2023-01-19T08:10:54.597Z,86.70
2023-01-19T08:13:40.048Z,86.30
2023-01-19T08:16:25.795Z,86.30
2023-01-19T08:19:11.638Z,86.00
2023-01-19T08:21:59.046Z,85.10
2023-01-19T08:24:44.821Z,84.50
2023-01-19T08:27:31.316Z,84.30
2023-01-19T08:30:19.516Z,83.50
2023-01-19T08:33:05.552Z,83.10
2023-01-19T08:35:54.614Z,82.20
2023-01-19T08:38:43.568Z,82.00
2023-01-19T08:41:33.734Z,82.00
2023-01-19T08:44:22.115Z,81.60
2023-01-19T08:47:09.058Z,81.30
2023-01-19T08:49:54.784Z,80.70
2023-01-19T08:52:41.084Z,80.60
2023-01-19T08:55:29.273Z,80.20
2023-01-19T08:58:17.472Z,80.20
2023-01-19T09:01:04.010Z,79.70
2023-01-19T09:03:49.837Z,79.60
2023-01-19T09:06:35.500Z,79.10
2023-01-19T09:09:20.831Z,78.80
2023-01-19T09:12:06.130Z,78.60
2023-01-19T09:14:51.488Z,77.90
2023-01-19T09:17:37.517Z,77.60
2023-01-19T09:20:23.514Z,77.60
2023-01-19T09:23:10.903Z,77.00
2023-01-19T09:26:01.832Z,77.00
2023-01-19T09:28:47.490Z,76.30
2023-01-19T09:31:32.741Z,76.10
2023-01-19T09:34:22.780Z,76.30
2023-01-19T09:37:10.845Z,76.20
2023-01-19T09:39:56.785Z,75.80
2023-01-19T09:42:46.004Z,75.80
2023-01-19T09:45:49.942Z,75.30
2023-01-19T09:48:48.530Z,75.20
2023-01-19T09:51:41.236Z,75.10
2023-01-19T09:54:41.053Z,74.90
2023-01-19T09:57:32.227Z,74.70
2023-01-19T10:00:18.628Z,74.70
2023-01-19T10:03:17.524Z,73.60
2023-01-19T10:06:09.671Z,73.60
2023-01-19T10:09:05.244Z,73.60
2023-01-19T10:12:03.676Z,73.70
2023-01-19T10:14:59.274Z,73.70
2023-01-19T10:17:56.098Z,73.40
2023-01-19T10:20:51.251Z,72.90
2023-01-19T10:23:42.522Z,72.70
2023-01-19T10:26:43.386Z,72.00
2023-01-19T10:29:36.254Z,72.00
2023-01-19T10:32:48.451Z,72.00
2023-01-19T10:35:38.428Z,71.70
2023-01-19T10:38:28.951Z,71.60
2023-01-19T10:41:28.389Z,71.40
2023-01-19T10:44:24.306Z,71.30
2023-01-19T10:47:22.902Z,70.90
2023-01-19T10:50:32.626Z,70.80
2023-01-19T10:53:25.673Z,70.30
2023-01-19T10:56:21.168Z,70.10
2023-01-19T10:59:29.194Z,70.00
2023-01-19T11:02:28.830Z,69.40
2023-01-19T11:05:27.268Z,69.40
2023-01-19T11:08:31.359Z,69.40
2023-01-19T11:11:17.553Z,69.10
2023-01-19T11:14:09.722Z,68.70
2023-01-19T11:16:58.899Z,68.00
2023-01-19T11:19:57.265Z,67.60
2023-01-19T11:22:45.775Z,67.40
2023-01-19T11:25:35.531Z,67.00
2023-01-19T11:28:41.132Z,66.20
2023-01-19T11:31:27.907Z,66.00
2023-01-19T11:34:26.563Z,65.40
2023-01-19T11:37:21.417Z,65.30
2023-01-19T11:40:09.802Z,65.30
2023-01-19T11:42:57.564Z,65.30
2023-01-19T11:45:44.386Z,65.30
2023-01-19T11:48:37.398Z,65.40
2023-01-19T11:51:25.086Z,65.30
2023-01-19T11:54:27.992Z,65.10
2023-01-19T11:57:17.213Z,65.00
2023-01-19T12:00:17.480Z,64.90
2023-01-19T12:03:07.042Z,64.70
2023-01-19T12:05:56.075Z,64.60
2023-01-19T12:08:46.354Z,64.80
2023-01-19T12:11:37.244Z,64.60
2023-01-19T12:14:34.660Z,64.20
2023-01-19T12:17:40.515Z,64.20
2023-01-19T12:20:35.287Z,63.90
2023-01-19T12:23:46.769Z,63.90
2023-01-19T12:26:50.012Z,64.20
2023-01-19T12:29:36.481Z,64.00
2023-01-19T12:32:38.087Z,64.40
2023-01-19T12:36:01.069Z,64.00
2023-01-19T12:38:48.002Z,63.90
2023-01-19T12:41:38.035Z,63.90
2023-01-19T12:44:28.598Z,64.00
2023-01-19T12:47:14.383Z,64.20
2023-01-19T12:50:07.190Z,64.20
2023-01-19T12:52:57.378Z,64.10
2023-01-19T12:55:46.856Z,64.50
2023-01-19T12:58:34.692Z,64.90
2023-01-19T13:01:21.947Z,65.00
2023-01-19T13:04:32.729Z,64.80
2023-01-19T13:07:20.497Z,65.00
2023-01-19T13:10:43.850Z,65.00
2023-01-19T13:13:43.849Z,65.00
2023-01-19T13:16:29.334Z,65.30
2023-01-19T13:19:21.332Z,65.50
2023-01-19T13:23:01.145Z,65.50
2023-01-19T13:25:59.902Z,65.50
2023-01-19T13:28:49.668Z,65.40
2023-01-19T13:31:38.325Z,65.60
2023-01-19T13:34:29.501Z,65.70
2023-01-19T13:37:32.997Z,65.10
2023-01-19T13:40:25.978Z,65.30
2023-01-19T13:43:21.376Z,65.70
2023-01-19T13:46:10.846Z,66.00
2023-01-19T13:49:15.165Z,66.00
2023-01-19T13:52:20.022Z,61.40
2023-01-19T13:55:09.774Z,55.90
2023-01-19T13:57:57.374Z,53.60
2023-01-19T14:00:46.038Z,50.90
2023-01-19T14:03:31.883Z,44.20
2023-01-19T14:06:39.875Z,39.00
2023-01-19T14:09:26.119Z,39.20
2023-01-19T14:12:14.171Z,43.60
2023-01-19T14:15:01.169Z,47.60
2023-01-19T14:18:12.515Z,50.60
2023-01-19T14:21:11.492Z,53.00
2023-01-19T14:24:20.016Z,54.70
2023-01-19T14:27:24.383Z,56.40
2023-01-19T14:30:22.377Z,58.60
2023-01-19T14:33:47.143Z,59.40
2023-01-19T14:36:39.228Z,60.50
2023-01-19T14:39:27.797Z,61.60
2023-01-19T14:42:35.815Z,62.30
2023-01-19T14:45:25.500Z,62.70
2023-01-19T14:48:22.156Z,63.00
2023-01-19T14:51:19.420Z,63.50
2023-01-19T14:54:19.052Z,64.20
2023-01-19T14:57:25.363Z,64.50
2023-01-19T15:00:19.172Z,64.90
2023-01-19T15:03:06.300Z,64.90
2023-01-19T15:05:52.961Z,65.40
2023-01-19T15:08:39.592Z,66.00
2023-01-19T15:11:35.372Z,66.60
2023-01-19T15:14:21.891Z,67.50
2023-01-19T15:17:25.477Z,67.90
2023-01-19T15:20:19.030Z,68.60
2023-01-19T15:23:04.271Z,68.80
2023-01-19T15:25:53.422Z,69.80
2023-01-19T15:28:39.174Z,70.20
2023-01-19T15:31:26.301Z,70.30
2023-01-19T15:34:15.045Z,70.20
2023-01-19T15:37:01.024Z,70.20
2023-01-19T15:39:49.472Z,70.10
2023-01-19T15:42:34.793Z,69.80
2023-01-19T15:45:36.800Z,70.40
2023-01-19T15:48:25.752Z,69.30
2023-01-19T15:51:15.896Z,69.00
2023-01-19T15:54:01.440Z,68.60
2023-01-19T15:56:46.768Z,68.40
2023-01-19T15:59:35.241Z,68.10
2023-01-19T16:02:20.397Z,67.90
2023-01-19T16:05:06.484Z,67.60
2023-01-19T16:07:52.387Z,67.70
2023-01-19T16:10:37.928Z,67.50
2023-01-19T16:13:25.746Z,67.80
2023-01-19T16:16:19.373Z,67.90
2023-01-19T16:19:07.399Z,68.10
2023-01-19T16:21:52.611Z,68.40
2023-01-19T16:24:38.878Z,68.70
2023-01-19T16:27:24.924Z,69.10
2023-01-19T16:30:14.804Z,70.00
2023-01-19T16:33:00.762Z,70.40
2023-01-19T16:35:50.994Z,71.20
2023-01-19T16:38:36.274Z,71.70
2023-01-19T16:41:22.336Z,71.90
2023-01-19T16:44:08.313Z,72.20
2023-01-19T16:46:56.300Z,72.90
2023-01-19T16:49:44.250Z,72.80
2023-01-19T16:52:30.485Z,72.60
2023-01-19T16:55:16.714Z,72.20
2023-01-19T16:58:01.940Z,71.50
2023-01-19T17:00:49.719Z,71.20
2023-01-19T17:03:36.109Z,70.50
2023-01-19T17:06:24.921Z,70.30
2023-01-19T17:09:15.271Z,69.80
2023-01-19T17:12:00.635Z,69.40
2023-01-19T17:14:48.197Z,69.00
2023-01-19T17:17:36.243Z,68.60
2023-01-19T17:20:21.683Z,68.60
2023-01-19T17:23:08.939Z,68.40
2023-01-19T17:25:55.408Z,68.30
2023-01-19T17:28:43.476Z,68.10
2023-01-19T17:31:32.258Z,67.80
2023-01-19T17:34:18.613Z,67.50
2023-01-19T17:37:04.398Z,67.30
2023-01-19T17:39:53.348Z,67.20
2023-01-19T17:42:42.533Z,67.40
2023-01-19T17:45:28.123Z,66.70
2023-01-19T17:48:13.501Z,66.70
2023-01-19T17:51:13.514Z,66.50
2023-01-19T17:54:01.878Z,66.10
2023-01-19T17:56:47.375Z,66.50
2023-01-19T17:59:36.193Z,66.40
2023-01-19T18:02:24.842Z,66.10
2023-01-19T18:05:12.647Z,66.10
2023-01-19T18:08:00.526Z,66.20
2023-01-19T18:10:57.017Z,66.30
2023-01-19T18:13:44.808Z,65.70
2023-01-19T18:16:30.984Z,65.60
2023-01-19T18:19:16.899Z,65.60
2023-01-19T18:22:06.965Z,65.60
2023-01-19T18:24:52.812Z,65.60
2023-01-19T18:27:38.178Z,65.60
2023-01-19T18:30:24.347Z,65.30
2023-01-19T18:33:09.882Z,65.30
2023-01-19T18:35:55.262Z,65.30
2023-01-19T18:38:41.601Z,65.50
2023-01-19T18:41:30.176Z,65.60
2023-01-19T18:44:15.862Z,65.10
2023-01-19T18:47:01.368Z,65.00
2023-01-19T18:49:47.056Z,65.00
2023-01-19T18:52:33.404Z,64.80
2023-01-19T18:55:19.184Z,65.30
2023-01-19T18:58:05.306Z,64.60
2023-01-19T19:00:51.024Z,64.40
2023-01-19T19:03:36.421Z,64.50
2023-01-19T19:06:23.956Z,64.10
2023-01-19T19:09:09.850Z,64.20
2023-01-19T19:11:55.655Z,64.30
2023-01-19T19:14:41.406Z,64.10
2023-01-19T19:17:27.062Z,64.30
2023-01-19T19:20:14.745Z,64.20
2023-01-19T19:23:00.249Z,64.60
2023-01-19T19:25:48.633Z,64.50
2023-01-19T19:28:39.029Z,64.60
2023-01-19T19:31:26.186Z,64.50
2023-01-19T19:34:18.872Z,64.30
2023-01-19T19:37:04.804Z,64.30
2023-01-19T19:39:50.387Z,64.10
2023-01-19T19:42:36.588Z,64.10
2023-01-19T19:45:22.325Z,64.30
2023-01-19T19:48:07.952Z,64.10
2023-01-19T19:50:53.837Z,64.10
2023-01-19T19:53:41.719Z,64.00
2023-01-19T19:56:29.997Z,63.80
2023-01-19T19:59:15.807Z,63.80
2023-01-19T20:02:03.700Z,64.50
2023-01-19T20:04:52.177Z,63.70
2023-01-19T20:07:39.185Z,63.60
2023-01-19T20:10:26.103Z,63.80
2023-01-19T20:13:11.674Z,63.80
2023-01-19T20:15:56.999Z,64.10
2023-01-19T20:18:51.465Z,64.10
2023-01-19T20:21:39.477Z,64.10
2023-01-19T20:24:24.933Z,64.10
2023-01-19T20:27:13.497Z,64.00
2023-01-19T20:30:00.746Z,64.00
2023-01-19T20:32:46.514Z,64.10
2023-01-19T20:35:32.316Z,64.00
2023-01-19T20:38:17.764Z,64.20
2023-01-19T20:41:06.645Z,64.30
2023-01-19T20:43:55.070Z,64.00
2023-01-19T20:46:40.891Z,64.10
2023-01-19T20:49:27.143Z,64.20
2023-01-19T20:52:13.048Z,64.10
2023-01-19T20:54:59.154Z,64.30
2023-01-19T20:57:44.978Z,64.50
2023-01-19T21:00:32.360Z,64.30
2023-01-19T21:03:19.874Z,64.60
2023-01-19T21:06:06.010Z,64.60
2023-01-19T21:08:54.131Z,64.80
2023-01-19T21:11:44.271Z,65.00
2023-01-19T21:14:29.701Z,65.20
2023-01-19T21:17:15.501Z,65.20
2023-01-19T21:20:03.432Z,65.30
2023-01-19T21:22:49.364Z,65.20
2023-01-19T21:25:34.728Z,65.00
2023-01-19T21:28:21.707Z,65.20
2023-01-19T21:31:14.903Z,64.80
2023-01-19T21:34:00.767Z,65.20
2023-01-19T21:36:46.421Z,65.20
2023-01-19T21:39:32.555Z,65.70
2023-01-19T21:42:21.344Z,65.70
2023-01-19T21:45:08.297Z,65.70
2023-01-19T21:47:54.087Z,66.30
2023-01-19T21:50:39.710Z,66.70
2023-01-19T21:53:25.144Z,68.20
2023-01-19T21:56:11.411Z,68.30
2023-01-19T21:59:02.875Z,67.90
2023-01-19T22:01:48.842Z,67.80
2023-01-19T22:04:35.271Z,67.70
2023-01-19T22:07:20.709Z,67.70
2023-01-19T22:10:11.066Z,67.80
2023-01-19T22:12:56.787Z,67.60
2023-01-19T22:15:42.089Z,67.80
2023-01-19T22:18:27.591Z,67.70
2023-01-19T22:21:14.542Z,67.60
2023-01-19T22:24:06.455Z,67.70
2023-01-19T22:26:51.876Z,67.50
2023-01-19T22:29:39.178Z,67.30
2023-01-19T22:32:24.557Z,67.50
2023-01-19T22:35:10.283Z,67.80
2023-01-19T22:38:00.780Z,67.80
2023-01-19T22:40:46.568Z,68.10
2023-01-19T22:43:31.986Z,67.90
2023-01-19T22:46:22.512Z,68.00
2023-01-19T22:49:13.490Z,68.00
2023-01-19T22:51:58.661Z,68.00
2023-01-19T22:54:46.127Z,68.20
2023-01-19T22:57:36.607Z,68.30
2023-01-19T23:00:24.640Z,68.40
2023-01-19T23:03:12.874Z,68.40
2023-01-19T23:06:01.956Z,68.60
2023-01-19T23:08:47.468Z,68.60
2023-01-19T23:11:37.091Z,68.90
2023-01-19T23:14:25.286Z,69.10
2023-01-19T23:17:13.090Z,69.00
2023-01-19T23:19:58.551Z,69.10
2023-01-19T23:22:44.117Z,69.30
2023-01-19T23:25:31.641Z,69.50
2023-01-19T23:28:19.420Z,69.50
2023-01-19T23:31:25.279Z,70.00
2023-01-19T23:34:14.501Z,70.30
2023-01-19T23:36:59.805Z,70.70
2023-01-19T23:39:45.519Z,70.90
2023-01-19T23:42:31.427Z,71.30
2023-01-19T23:45:16.972Z,71.70
2023-01-19T23:48:03.800Z,71.70
2023-01-19T23:50:49.072Z,72.20
2023-01-19T23:53:34.962Z,72.70
2023-01-19T23:56:23.769Z,72.10
2023-01-19T23:59:12.129Z,71.60
